createdAt,value
2023-02-22T00:02:10.866Z,100413.19
2023-02-22T00:04:16.710Z,100406.38
2023-02-22T00:06:21.876Z,100413.16
2023-02-22T00:08:25.807Z,100410.63
2023-02-22T00:10:27.892Z,100408.06
2023-02-22T00:12:29.996Z,100404.63
2023-02-22T00:14:31.996Z,100405.47
2023-02-22T00:16:34.990Z,100406.25
2023-02-22T00:18:42.980Z,100402.78
2023-02-22T00:20:45.268Z,100412.16
2023-02-22T00:22:49.123Z,100415.56
2023-02-22T00:24:51.241Z,100424.84
2023-02-22T00:26:58.026Z,100417.97
2023-02-22T00:29:00.022Z,100431.47
2023-02-22T00:31:02.026Z,100426.34
2023-02-22T00:33:06.340Z,100438.19
2023-02-22T00:35:09.034Z,100433.09
2023-02-22T00:37:11.686Z,100438.09
2023-02-22T00:39:14.637Z,100438.72
2023-02-22T00:41:25.553Z,100437.06
2023-02-22T00:43:27.613Z,100431.91
2023-02-22T00:45:31.221Z,100440.44
2023-02-22T00:47:34.202Z,100441.34
2023-02-22T00:49:37.468Z,100447.19
2023-02-22T00:51:39.721Z,100449.66
2023-02-22T00:53:41.666Z,100453.88
2023-02-22T00:55:43.736Z,100450.47
2023-02-22T00:57:45.690Z,100456.38
2023-02-22T00:59:47.744Z,100447.09
2023-02-22T01:01:49.861Z,100462.22
2023-02-22T01:03:52.443Z,100454.53
2023-02-22T01:05:54.507Z,100462.88
2023-02-22T01:07:57.907Z,100466.34
2023-02-22T01:09:59.796Z,100468.72
2023-02-22T01:12:02.624Z,100472.00
2023-02-22T01:14:04.386Z,100474.59
2023-02-22T01:16:08.569Z,100474.59
2023-02-22T01:18:11.919Z,100481.22
2023-02-22T01:20:16.879Z,100481.22
2023-02-22T01:22:19.376Z,100487.13
2023-02-22T01:24:21.200Z,100488.69
2023-02-22T01:26:22.999Z,100495.50
2023-02-22T01:28:24.913Z,100494.66
2023-02-22T01:30:28.445Z,100494.53
2023-02-22T01:32:30.966Z,100502.19
2023-02-22T01:34:34.938Z,100502.72
2023-02-22T01:36:36.853Z,100505.25
2023-02-22T01:38:39.486Z,100504.53
2023-02-22T01:40:55.731Z,100497.84
2023-02-22T01:43:15.788Z,100496.66
2023-02-22T01:45:32.969Z,100507.03
2023-02-22T01:47:35.849Z,100502.63
2023-02-22T01:49:55.861Z,100508.63
2023-02-22T01:52:00.373Z,100507.81
2023-02-22T01:54:06.500Z,100504.34
2023-02-22T01:56:09.358Z,100508.66
2023-02-22T01:58:13.884Z,100505.38
2023-02-22T02:00:21.362Z,100511.28
2023-02-22T02:02:25.440Z,100514.75
2023-02-22T02:04:28.470Z,100511.13
2023-02-22T02:06:37.349Z,100512.13
2023-02-22T02:08:50.007Z,100518.03
2023-02-22T02:10:58.354Z,100525.38
2023-02-22T02:13:00.390Z,100526.34
2023-02-22T02:15:22.980Z,100527.28
2023-02-22T02:17:24.905Z,100523.19
2023-02-22T02:19:32.449Z,100528.41
2023-02-22T02:21:52.836Z,100525.13
2023-02-22T02:24:16.458Z,100528.53
2023-02-22T02:26:27.773Z,100530.31
2023-02-22T02:28:42.310Z,100530.41
2023-02-22T02:30:45.118Z,100521.84
2023-02-22T02:33:06.747Z,100533.78
2023-02-22T02:35:13.885Z,100532.84
2023-02-22T02:37:33.828Z,100534.44
2023-02-22T02:39:39.886Z,100538.63
2023-02-22T02:41:45.686Z,100540.25
2023-02-22T02:43:55.288Z,100543.56
2023-02-22T02:46:12.441Z,100536.69
2023-02-22T02:48:17.463Z,100542.56
2023-02-22T02:50:25.530Z,100548.41
2023-02-22T02:52:30.786Z,100547.47
2023-02-22T02:54:33.560Z,100549.97
2023-02-22T02:56:35.577Z,100553.44
2023-02-22T02:58:49.353Z,100553.31
2023-02-22T03:00:56.905Z,100556.53
2023-02-22T03:02:59.288Z,100555.94
2023-02-22T03:05:35.132Z,100556.53
2023-02-22T03:08:00.846Z,100554.78
2023-02-22T03:10:21.916Z,100560.59
2023-02-22T03:12:23.662Z,100560.53
2023-02-22T03:14:31.349Z,100561.25
2023-02-22T03:16:38.801Z,100564.50
2023-02-22T03:18:50.613Z,100563.72
2023-02-22T03:20:56.002Z,100562.75
2023-02-22T03:23:01.259Z,100567.72
2023-02-22T03:25:08.233Z,100564.25
2023-02-22T03:27:24.868Z,100574.53
2023-02-22T03:29:29.535Z,100567.53
2023-02-22T03:31:42.936Z,100573.38
2023-02-22T03:33:47.983Z,100570.91
2023-02-22T03:35:57.106Z,100556.38
2023-02-22T03:38:04.223Z,100580.91
2023-02-22T03:40:15.215Z,100585.16
2023-02-22T03:42:38.459Z,100582.81
2023-02-22T03:44:43.524Z,100579.31
2023-02-22T03:46:49.023Z,100584.44
2023-02-22T03:48:59.043Z,100577.47
2023-02-22T03:51:04.650Z,100578.41
2023-02-22T03:53:07.700Z,100581.78
2023-02-22T03:55:12.212Z,100586.16
2023-02-22T03:57:25.434Z,100595.75
2023-02-22T03:59:28.164Z,100594.16
2023-02-22T04:01:31.101Z,100589.88
2023-02-22T04:03:32.999Z,100589.78
2023-02-22T04:05:34.999Z,100591.53
2023-02-22T04:07:37.124Z,100588.03
2023-02-22T04:09:39.503Z,100590.47
2023-02-22T04:11:42.551Z,100591.00
2023-02-22T04:13:44.470Z,100597.75
2023-02-22T04:15:46.527Z,100605.31
2023-02-22T04:17:48.558Z,100601.28
2023-02-22T04:19:51.598Z,100607.00
2023-02-22T04:21:53.553Z,100608.97
2023-02-22T04:23:58.247Z,100616.53
2023-02-22T04:26:00.287Z,100611.56
2023-02-22T04:28:03.428Z,100618.34
2023-02-22T04:30:06.154Z,100615.66
2023-02-22T04:32:08.801Z,100611.50
2023-02-22T04:34:10.792Z,100604.84
2023-02-22T04:36:13.815Z,100611.72
2023-02-22T04:38:15.723Z,100618.41
2023-02-22T04:40:18.208Z,100616.66
2023-02-22T04:42:20.292Z,100620.09
2023-02-22T04:44:22.322Z,100621.81
2023-02-22T04:46:24.299Z,100614.38
2023-02-22T04:48:27.294Z,100621.41
2023-02-22T04:50:31.956Z,100626.59
2023-02-22T04:52:34.118Z,100625.88
2023-02-22T04:54:46.308Z,100628.56
2023-02-22T04:56:48.554Z,100628.56
2023-02-22T04:58:52.473Z,100637.16
2023-02-22T05:00:54.539Z,100636.41
2023-02-22T05:02:56.511Z,100642.44
2023-02-22T05:04:58.735Z,100640.78
2023-02-22T05:07:05.136Z,100645.91
2023-02-22T05:09:07.184Z,100643.38
2023-02-22T05:11:10.535Z,100632.38
2023-02-22T05:13:13.183Z,100644.97
2023-02-22T05:15:20.850Z,100646.63
2023-02-22T05:17:30.011Z,100643.03
2023-02-22T05:19:31.926Z,100643.84
2023-02-22T05:21:38.396Z,100642.88
2023-02-22T05:23:41.709Z,100646.31
2023-02-22T05:25:44.799Z,100649.63
2023-02-22T05:27:56.546Z,100647.09
2023-02-22T05:29:58.490Z,100652.94
2023-02-22T05:32:00.511Z,100657.34
2023-02-22T05:34:02.640Z,100659.81
2023-02-22T05:36:09.085Z,100668.28
2023-02-22T05:38:15.332Z,100666.44
2023-02-22T05:40:24.508Z,100669.78
2023-02-22T05:42:26.596Z,100669.59
2023-02-22T05:44:28.514Z,100681.63
2023-02-22T05:46:30.577Z,100683.16
2023-02-22T05:48:33.767Z,100685.66
2023-02-22T05:50:35.812Z,100690.75
2023-02-22T05:52:38.891Z,100695.78
2023-02-22T05:54:40.830Z,100696.56
2023-02-22T05:56:44.802Z,100695.69
2023-02-22T05:58:46.835Z,100698.22
2023-02-22T06:00:49.878Z,100709.97
2023-02-22T06:02:59.904Z,100708.06
2023-02-22T06:05:01.863Z,100715.00
2023-02-22T06:07:04.831Z,100714.16
2023-02-22T06:09:12.640Z,100715.81
2023-02-22T06:11:23.231Z,100721.00
2023-02-22T06:13:26.193Z,100727.81
2023-02-22T06:15:29.775Z,100729.47
2023-02-22T06:17:32.725Z,100731.16
2023-02-22T06:19:34.735Z,100732.97
2023-02-22T06:21:37.753Z,100738.16
2023-02-22T06:23:39.714Z,100730.59
2023-02-22T06:25:41.646Z,100735.66
2023-02-22T06:27:43.595Z,100738.38
2023-02-22T06:29:47.463Z,100738.28
2023-02-22T06:31:51.749Z,100740.94
2023-02-22T06:33:57.348Z,100732.56
2023-02-22T06:36:00.547Z,100741.25
2023-02-22T06:38:02.648Z,100753.22
2023-02-22T06:40:05.689Z,100749.09
2023-02-22T06:42:08.024Z,100755.03
2023-02-22T06:44:11.345Z,100758.44
2023-02-22T06:46:14.794Z,100761.88
2023-02-22T06:48:19.174Z,100756.94
2023-02-22T06:50:27.120Z,100757.09
2023-02-22T06:52:30.240Z,100756.28
2023-02-22T06:54:32.556Z,100758.16
2023-02-22T06:56:34.505Z,100762.53
2023-02-22T06:58:36.502Z,100765.91
2023-02-22T07:00:38.571Z,100757.56
2023-02-22T07:02:48.714Z,100756.75
2023-02-22T07:04:52.933Z,100757.69
2023-02-22T07:06:54.924Z,100756.75
2023-02-22T07:08:56.818Z,100766.25
2023-02-22T07:10:59.890Z,100766.25
2023-02-22T07:13:05.092Z,100774.72
2023-02-22T07:15:07.855Z,100775.72
2023-02-22T07:17:12.192Z,100769.69
2023-02-22T07:19:19.544Z,100774.88
2023-02-22T07:21:26.021Z,100772.38
2023-02-22T07:23:30.106Z,100782.56
2023-02-22T07:25:38.011Z,100774.91
2023-02-22T07:27:42.325Z,100772.50
2023-02-22T07:29:50.232Z,100783.53
2023-02-22T07:31:53.310Z,100783.69
2023-02-22T07:33:55.415Z,100775.91
2023-02-22T07:36:00.594Z,100778.59
2023-02-22T07:38:04.347Z,100778.63
2023-02-22T07:40:10.354Z,100784.63
2023-02-22T07:42:12.526Z,100784.63
2023-02-22T07:44:17.855Z,100777.75
2023-02-22T07:46:27.863Z,100784.97
2023-02-22T07:48:31.769Z,100785.47
2023-02-22T07:50:40.996Z,100784.88
2023-02-22T07:52:56.928Z,100778.22
2023-02-22T07:55:00.747Z,100784.44
2023-02-22T07:57:03.707Z,100781.88
2023-02-22T07:59:05.667Z,100783.03
2023-02-22T08:01:08.991Z,100779.69
2023-02-22T08:03:15.598Z,100789.09
2023-02-22T08:05:21.807Z,100795.22
2023-02-22T08:07:25.583Z,100783.03
2023-02-22T08:09:30.685Z,100793.25
2023-02-22T08:11:33.716Z,100789.19
2023-02-22T08:13:39.220Z,100782.22
2023-02-22T08:15:42.327Z,100789.88
2023-02-22T08:17:50.545Z,100784.75
2023-02-22T08:19:52.537Z,100789.94
2023-02-22T08:21:57.539Z,100792.03
2023-02-22T08:24:03.010Z,100793.78
2023-02-22T08:26:15.789Z,100799.03
2023-02-22T08:28:23.835Z,100794.84
2023-02-22T08:30:30.075Z,100801.56
2023-02-22T08:32:33.150Z,100808.13
2023-02-22T08:34:36.501Z,100804.06
2023-02-22T08:36:43.749Z,100808.34
2023-02-22T08:38:54.929Z,100803.31
2023-02-22T08:40:58.961Z,100800.22
2023-02-22T08:43:07.009Z,100802.66
2023-02-22T08:45:09.504Z,100804.47
2023-02-22T08:47:11.648Z,100808.00
2023-02-22T08:49:19.068Z,100802.09
2023-02-22T08:51:21.668Z,100807.91
2023-02-22T08:53:33.589Z,100810.34
2023-02-22T08:55:42.194Z,100823.09
2023-02-22T08:57:45.272Z,100814.41
2023-02-22T08:59:48.415Z,100822.88
2023-02-22T09:01:50.474Z,100824.44
2023-02-22T09:03:55.258Z,100828.53
2023-02-22T09:06:08.385Z,100823.47
2023-02-22T09:08:11.086Z,100827.06
2023-02-22T09:10:26.944Z,100834.00
2023-02-22T09:12:32.125Z,100830.38
2023-02-22T09:14:34.375Z,100829.63
2023-02-22T09:16:38.461Z,100825.22
2023-02-22T09:18:44.248Z,100827.84
2023-02-22T09:20:47.684Z,100829.59
2023-02-22T09:22:55.774Z,100832.16
2023-02-22T09:25:02.646Z,100833.78
2023-02-22T09:27:12.469Z,100832.94
2023-02-22T09:29:15.451Z,100832.25
2023-02-22T09:31:17.717Z,100829.97
2023-02-22T09:33:22.032Z,100828.38
2023-02-22T09:35:30.237Z,100834.47
2023-02-22T09:37:33.240Z,100825.97
2023-02-22T09:39:37.896Z,100825.41
2023-02-22T09:41:45.136Z,100829.63
2023-02-22T09:44:07.264Z,100827.94
2023-02-22T09:46:34.924Z,100835.44
2023-02-22T09:49:04.076Z,100836.94
2023-02-22T09:51:16.080Z,100835.31
2023-02-22T09:53:31.185Z,100832.06
2023-02-22T09:55:44.207Z,100832.81
2023-02-22T09:57:49.641Z,100839.69
2023-02-22T10:00:13.483Z,100842.22
2023-02-22T10:02:27.175Z,100849.06
2023-02-22T10:04:43.076Z,100837.34
2023-02-22T10:07:12.335Z,100841.69
2023-02-22T10:09:15.892Z,100844.19
2023-02-22T10:11:26.616Z,100849.28
2023-02-22T10:13:48.927Z,100846.66
2023-02-22T10:16:22.271Z,100842.34
2023-02-22T10:18:35.498Z,100850.72
2023-02-22T10:20:53.816Z,100854.97
2023-02-22T10:23:24.108Z,100854.22
2023-02-22T10:25:28.706Z,100848.31
2023-02-22T10:27:39.280Z,100849.97
2023-02-22T10:29:46.836Z,100854.06
2023-02-22T10:32:01.734Z,100864.00
2023-02-22T10:34:17.753Z,100869.38
2023-02-22T10:36:22.638Z,100867.63
2023-02-22T10:38:30.956Z,100865.81
2023-02-22T10:40:33.421Z,100858.88
2023-02-22T10:42:51.734Z,100875.66
2023-02-22T10:44:53.776Z,100864.50
2023-02-22T10:46:59.327Z,100860.94
2023-02-22T10:49:07.616Z,100867.84
2023-02-22T10:51:10.451Z,100867.03
2023-02-22T10:53:15.556Z,100865.97
2023-02-22T10:55:17.598Z,100872.75
2023-02-22T10:57:32.154Z,100872.81
2023-02-22T10:59:39.745Z,100868.44
2023-02-22T11:01:42.764Z,100870.72
2023-02-22T11:03:45.864Z,100872.53
2023-02-22T11:05:53.768Z,100869.00
2023-02-22T11:08:15.981Z,100876.53
2023-02-22T11:10:31.812Z,100867.28
2023-02-22T11:12:40.041Z,100869.78
2023-02-22T11:14:48.677Z,100869.84
2023-02-22T11:16:57.206Z,100864.84
2023-02-22T11:19:04.996Z,100862.28
2023-02-22T11:21:11.810Z,100864.16
2023-02-22T11:23:14.861Z,100874.31
2023-02-22T11:25:25.193Z,100872.47
2023-02-22T11:27:33.294Z,100871.78
2023-02-22T11:29:37.395Z,100867.53
2023-02-22T11:31:45.773Z,100867.66
2023-02-22T11:36:04.350Z,100865.88
2023-02-22T11:38:31.190Z,100870.88
2023-02-22T11:40:35.581Z,100875.94
2023-02-22T11:42:37.633Z,100875.28
2023-02-22T11:44:44.190Z,100870.22
2023-02-22T11:46:46.364Z,100879.44
2023-02-22T11:49:13.100Z,100882.69
2023-02-22T11:51:38.652Z,100876.78
2023-02-22T11:54:01.580Z,100876.63
2023-02-22T11:56:43.221Z,100880.78
2023-02-22T11:59:08.683Z,100873.31
2023-02-22T12:01:18.632Z,100873.47
2023-02-22T12:03:40.728Z,100880.19
2023-02-22T12:06:19.818Z,100882.72
2023-02-22T12:08:36.807Z,100867.88
2023-02-22T12:10:58.036Z,100881.31
2023-02-22T12:13:17.352Z,100871.19
2023-02-22T12:15:56.545Z,100873.06
2023-02-22T12:18:37.009Z,100877.22
2023-02-22T12:20:45.817Z,100874.94
2023-02-22T12:23:10.532Z,100881.56
2023-02-22T12:25:25.231Z,100875.50
2023-02-22T12:27:40.709Z,100879.75
2023-02-22T12:29:54.803Z,100884.94
2023-02-22T12:32:05.166Z,100881.56
2023-02-22T12:34:28.036Z,100889.91
2023-02-22T12:36:46.940Z,100883.06
2023-02-22T12:38:57.631Z,100876.13
2023-02-22T12:41:39.397Z,100898.34
2023-02-22T12:44:09.810Z,100885.66
2023-02-22T12:46:34.580Z,100900.72
2023-02-22T12:49:30.916Z,100893.19
2023-02-22T12:51:32.787Z,100891.66
2023-02-22T12:53:39.086Z,100899.91
2023-02-22T12:55:48.045Z,100906.25
2023-02-22T12:58:00.014Z,100909.88
2023-02-22T13:00:26.817Z,100913.81
2023-02-22T13:02:47.942Z,100912.22
2023-02-22T13:04:52.210Z,100916.41
2023-02-22T13:07:00.238Z,100912.34
2023-02-22T13:09:32.933Z,100911.59
2023-02-22T13:11:43.980Z,100915.06
2023-02-22T13:14:12.532Z,100920.72
2023-02-22T13:16:33.777Z,100921.63
2023-02-22T13:18:51.579Z,100932.47
2023-02-22T13:21:02.553Z,100931.69
2023-02-22T13:23:16.325Z,100925.13
2023-02-22T13:25:28.367Z,100939.31
2023-02-22T13:27:43.042Z,100932.47
2023-02-22T13:29:49.131Z,100925.06
2023-02-22T13:32:09.831Z,100940.19
2023-02-22T13:34:47.108Z,100938.25
2023-02-22T13:36:58.428Z,100931.50
2023-02-22T13:39:29.433Z,100919.81
2023-02-22T13:42:05.895Z,100926.69
2023-02-22T13:44:36.836Z,100919.88
2023-02-22T13:46:40.838Z,100925.84
2023-02-22T13:49:01.164Z,100928.56
2023-02-22T13:51:34.451Z,100927.81
2023-02-22T13:53:43.865Z,100921.97
2023-02-22T13:55:53.200Z,100925.06
2023-02-22T13:58:08.125Z,100929.56
2023-02-22T14:00:15.949Z,100941.41
2023-02-22T14:03:08.323Z,100940.25
2023-02-22T14:05:47.558Z,100936.03
2023-02-22T14:07:50.106Z,100943.44
2023-02-22T14:09:57.577Z,100949.22
2023-02-22T14:11:59.760Z,100938.91
2023-02-22T14:14:01.758Z,100947.41
2023-02-22T14:16:06.738Z,100947.47
2023-02-22T14:18:17.985Z,100944.13
2023-02-22T14:20:35.210Z,100949.81
2023-02-22T14:22:37.461Z,100953.19
2023-02-22T14:24:51.315Z,100948.00
2023-02-22T14:27:00.533Z,100953.19
2023-02-22T14:29:03.514Z,100946.28
2023-02-22T14:31:17.453Z,100948.84
2023-02-22T14:33:56.935Z,100956.75
2023-02-22T14:35:59.055Z,100951.59
2023-02-22T14:38:03.283Z,100954.38
2023-02-22T14:40:15.755Z,100945.03
2023-02-22T14:42:19.988Z,100954.38
2023-02-22T14:44:36.197Z,100951.03
2023-02-22T14:46:41.902Z,100954.38
2023-02-22T14:49:01.147Z,100955.97
2023-02-22T14:51:21.464Z,100950.88
2023-02-22T14:53:41.610Z,100949.81
2023-02-22T14:55:52.361Z,100961.69
2023-02-22T14:58:26.665Z,100954.03
2023-02-22T15:00:58.672Z,100955.91
2023-02-22T15:03:01.750Z,100955.00
2023-02-22T15:05:14.999Z,100953.09
2023-02-22T15:07:32.619Z,100952.25
2023-02-22T15:09:37.806Z,100952.31
2023-02-22T15:11:42.103Z,100951.03
2023-02-22T15:13:51.304Z,100944.25
2023-02-22T15:16:03.575Z,100950.88
2023-02-22T15:18:14.717Z,100949.06
2023-02-22T15:20:17.895Z,100955.88
2023-02-22T15:22:23.282Z,100954.09
2023-02-22T15:24:28.478Z,100959.06
2023-02-22T15:26:37.542Z,100959.06
2023-02-22T15:28:39.702Z,100963.25
2023-02-22T15:30:42.241Z,100962.22
2023-02-22T15:33:02.627Z,100969.81
2023-02-22T15:35:31.057Z,100972.47
2023-02-22T15:37:33.024Z,100963.84
2023-02-22T15:39:35.090Z,100979.06
2023-02-22T15:41:37.040Z,100973.25
2023-02-22T15:43:40.842Z,100976.53
2023-02-22T15:45:43.571Z,100961.09
2023-02-22T15:47:46.007Z,100970.34
2023-02-22T15:50:16.032Z,100967.06
2023-02-22T15:52:21.510Z,100966.34
2023-02-22T15:54:27.561Z,100975.06
2023-02-22T15:56:34.120Z,100976.72
2023-02-22T15:58:37.325Z,100975.91
2023-02-22T16:00:50.384Z,100981.84
2023-02-22T16:02:58.199Z,100979.19
2023-02-22T16:05:13.732Z,100986.09
2023-02-22T16:07:17.359Z,100991.25
2023-02-22T16:09:30.589Z,100985.84
2023-02-22T16:11:40.614Z,100989.44
2023-02-22T16:13:43.618Z,100996.22
2023-02-22T16:16:13.724Z,101001.25
2023-02-22T16:18:28.407Z,100993.44
2023-02-22T16:20:32.867Z,101001.00
2023-02-22T16:22:38.715Z,101000.34
2023-02-22T16:24:44.050Z,101001.13
2023-02-22T16:27:22.185Z,101003.63
2023-02-22T16:29:31.585Z,101004.50
2023-02-22T16:31:37.662Z,101007.72
2023-02-22T16:33:42.713Z,101005.97
2023-02-22T16:35:57.356Z,101011.88
2023-02-22T16:38:09.675Z,101013.59
2023-02-22T16:40:32.538Z,101017.00
2023-02-22T16:42:36.827Z,101028.53
2023-02-22T16:44:39.068Z,101022.34
2023-02-22T16:46:44.806Z,101030.81
2023-02-22T16:48:48.170Z,101026.63
2023-02-22T16:50:55.392Z,101031.59
2023-02-22T16:53:00.951Z,101035.13
2023-02-22T16:55:03.332Z,101023.91
2023-02-22T16:57:06.229Z,101035.72
2023-02-22T16:59:16.994Z,101030.81
2023-02-22T17:01:24.093Z,101034.78
2023-02-22T17:03:32.455Z,101032.91
2023-02-22T17:05:37.031Z,101031.72
2023-02-22T17:07:40.752Z,101037.78
2023-02-22T17:09:43.764Z,101045.09
2023-02-22T17:11:47.615Z,101050.38
2023-02-22T17:13:52.387Z,101043.09
2023-02-22T17:15:55.311Z,101047.06
2023-02-22T17:17:57.993Z,101040.41
2023-02-22T17:20:01.840Z,101048.09
2023-02-22T17:22:06.533Z,101042.63
2023-02-22T17:24:13.466Z,101054.47
2023-02-22T17:26:20.805Z,101043.53
2023-02-22T17:28:25.672Z,101042.63
2023-02-22T17:30:28.397Z,101046.06
2023-02-22T17:32:30.812Z,101045.91
2023-02-22T17:34:33.346Z,101045.72
2023-02-22T17:36:40.470Z,101047.56
2023-02-22T17:38:43.532Z,101051.81
2023-02-22T17:40:55.067Z,101043.97
2023-02-22T17:43:01.378Z,101034.09
2023-02-22T17:45:08.899Z,101044.09
2023-02-22T17:47:12.412Z,101046.06
2023-02-22T17:49:15.985Z,101034.00
2023-02-22T17:51:18.710Z,101039.06
2023-02-22T17:53:26.195Z,101040.75
2023-02-22T17:55:29.176Z,101050.81
2023-02-22T17:57:35.280Z,101041.63
2023-02-22T17:59:39.542Z,101039.00
2023-02-22T18:01:45.961Z,101034.09
2023-02-22T18:03:48.866Z,101036.59
2023-02-22T18:05:56.007Z,101035.91
2023-02-22T18:07:59.120Z,101040.91
2023-02-22T18:10:14.454Z,101041.81
2023-02-22T18:12:17.376Z,101043.66
2023-02-22T18:14:26.005Z,101039.34
2023-02-22T18:16:37.128Z,101056.16
2023-02-22T18:18:45.103Z,101059.69
2023-02-22T18:21:00.194Z,101052.09
2023-02-22T18:23:10.346Z,101061.31
2023-02-22T18:25:17.938Z,101066.34
2023-02-22T18:27:24.593Z,101061.19
2023-02-22T18:29:43.522Z,101066.34
2023-02-22T18:31:57.538Z,101066.25
2023-02-22T18:34:02.453Z,101064.53
2023-02-22T18:36:13.792Z,101066.22
2023-02-22T18:38:26.210Z,101059.72
2023-02-22T18:40:31.440Z,101062.19
2023-02-22T18:42:43.620Z,101065.84
2023-02-22T18:44:55.837Z,101067.31
2023-02-22T18:46:59.440Z,101057.00
2023-02-22T18:49:03.388Z,101064.16
2023-02-22T18:51:12.296Z,101061.97
2023-02-22T18:53:18.540Z,101055.22
2023-02-22T18:55:25.595Z,101057.06
2023-02-22T18:57:28.786Z,101052.88
2023-02-22T18:59:32.345Z,101057.16
2023-02-22T19:01:39.322Z,101051.41
2023-02-22T19:03:49.690Z,101056.16
2023-02-22T19:05:58.816Z,101052.56
2023-02-22T19:08:01.707Z,101042.47
2023-02-22T19:10:05.735Z,101043.66
2023-02-22T19:12:09.944Z,101043.47
2023-02-22T19:14:17.722Z,101041.91
2023-02-22T19:16:25.538Z,101050.00
2023-02-22T19:18:29.515Z,101046.06
2023-02-22T19:20:35.777Z,101047.78
2023-02-22T19:22:39.416Z,101050.22
2023-02-22T19:24:46.865Z,101052.41
2023-02-22T19:26:54.430Z,101061.41
2023-02-22T19:29:09.188Z,101067.16
2023-02-22T19:31:27.618Z,101074.81
2023-02-22T19:33:31.261Z,101067.91
2023-02-22T19:35:34.496Z,101069.59
2023-02-22T19:37:40.198Z,101076.59
2023-02-22T19:39:44.872Z,101063.75
2023-02-22T19:41:49.844Z,101068.22
2023-02-22T19:43:57.921Z,101066.25
2023-02-22T19:46:12.699Z,101068.47
2023-02-22T19:48:15.754Z,101062.69
2023-02-22T19:50:19.615Z,101076.09
2023-02-22T19:52:22.761Z,101076.91
2023-02-22T19:54:26.750Z,101078.78
2023-02-22T19:56:32.068Z,101073.81
2023-02-22T19:58:38.717Z,101079.47
2023-02-22T20:00:46.446Z,101072.16
2023-02-22T20:03:06.438Z,101075.09
2023-02-22T20:05:17.177Z,101082.81
2023-02-22T20:07:23.339Z,101081.53
2023-02-22T20:09:41.673Z,101079.28
2023-02-22T20:11:47.246Z,101079.28
2023-02-22T20:13:53.198Z,101087.09
2023-02-22T20:16:02.925Z,101076.72
2023-02-22T20:18:09.711Z,101081.88
2023-02-22T20:20:13.891Z,101084.38
2023-02-22T20:22:17.544Z,101088.84
2023-02-22T20:24:20.678Z,101083.66
2023-02-22T20:26:25.034Z,101087.72
2023-02-22T20:28:28.265Z,101089.59
2023-02-22T20:30:32.876Z,101082.56
2023-02-22T20:32:36.375Z,101086.97
2023-02-22T20:34:46.802Z,101084.91
2023-02-22T20:36:50.218Z,101089.00
2023-02-22T20:38:58.447Z,101096.16
2023-02-22T20:41:00.754Z,101082.50
2023-02-22T20:43:03.703Z,101088.28
2023-02-22T20:45:11.005Z,101086.00
2023-02-22T20:47:19.004Z,101094.72
2023-02-22T20:49:23.090Z,101075.31
2023-02-22T20:51:27.644Z,101091.47
2023-02-22T20:53:32.544Z,101082.00
2023-02-22T20:55:36.144Z,101086.09
2023-02-22T20:57:39.552Z,101077.81
2023-02-22T20:59:42.321Z,101081.25
2023-02-22T21:01:45.408Z,101075.75
2023-02-22T21:03:48.934Z,101073.41
2023-02-22T21:05:52.980Z,101081.34
2023-02-22T21:07:59.160Z,101072.56
2023-02-22T21:10:03.711Z,101069.09
2023-02-22T21:12:14.006Z,101078.38
2023-02-22T21:14:20.848Z,101077.34
2023-02-22T21:16:32.267Z,101074.03
2023-02-22T21:18:34.510Z,101081.19
2023-02-22T21:20:40.609Z,101076.00
2023-02-22T21:22:53.508Z,101079.84
2023-02-22T21:24:57.885Z,101081.50
2023-02-22T21:27:01.173Z,101069.97
2023-02-22T21:29:06.924Z,101073.94
2023-02-22T21:31:11.716Z,101087.91
2023-02-22T21:33:17.483Z,101087.22
2023-02-22T21:35:22.277Z,101082.44
2023-02-22T21:37:27.320Z,101088.66
2023-02-22T21:39:30.061Z,101086.25
2023-02-22T21:41:40.826Z,101087.72
2023-02-22T21:43:44.532Z,101087.13
2023-02-22T21:45:47.225Z,101084.28
2023-02-22T21:47:53.635Z,101072.31
2023-02-22T21:49:57.615Z,101083.50
2023-02-22T21:52:00.101Z,101081.03
2023-02-22T21:54:05.150Z,101090.78
2023-02-22T21:56:15.546Z,101068.78
2023-02-22T21:58:17.574Z,101085.13
2023-02-22T22:00:29.278Z,101087.47
2023-02-22T22:02:32.500Z,101086.59
2023-02-22T22:04:35.561Z,101082.50
2023-02-22T22:06:37.594Z,101082.34
2023-02-22T22:08:43.127Z,101080.91
2023-02-22T22:10:55.515Z,101085.09
2023-02-22T22:13:00.513Z,101082.81
2023-02-22T22:15:02.590Z,101083.38
2023-02-22T22:17:08.098Z,101086.44
2023-02-22T22:19:10.195Z,101094.38
2023-02-22T22:21:19.605Z,101091.47
2023-02-22T22:23:21.862Z,101088.84
2023-02-22T22:25:24.634Z,101089.16
2023-02-22T22:27:27.503Z,101084.81
2023-02-22T22:29:31.086Z,101082.22
2023-02-22T22:31:34.200Z,101090.78
2023-02-22T22:33:37.683Z,101076.84
2023-02-22T22:35:42.066Z,101091.41
2023-02-22T22:37:44.052Z,101083.72
2023-02-22T22:39:46.055Z,101082.50
2023-02-22T22:41:48.550Z,101080.94
2023-02-22T22:43:57.351Z,101087.06
2023-02-22T22:46:00.888Z,101086.13
2023-02-22T22:48:04.892Z,101091.94
2023-02-22T22:50:07.568Z,101087.00
2023-02-22T22:52:10.819Z,101085.75
2023-02-22T22:54:12.781Z,101089.06
2023-02-22T22:56:20.901Z,101082.44
2023-02-22T22:58:22.877Z,101083.13
2023-02-22T23:00:38.024Z,101082.22
2023-02-22T23:02:40.886Z,101089.53
2023-02-22T23:04:42.997Z,101085.75
2023-02-22T23:06:47.322Z,101080.38
2023-02-22T23:09:08.130Z,101086.91
2023-02-22T23:11:11.242Z,101085.75
2023-02-22T23:13:15.851Z,101086.34
2023-02-22T23:15:18.336Z,101083.84
2023-02-22T23:17:31.613Z,101087.13
2023-02-22T23:19:35.453Z,101092.19
2023-02-22T23:21:39.384Z,101086.09
2023-02-22T23:23:41.545Z,101086.09
2023-02-22T23:25:43.722Z,101083.59
2023-02-22T23:27:46.603Z,101091.13
2023-02-22T23:29:49.842Z,101085.09
2023-02-22T23:31:51.765Z,101085.88
2023-02-22T23:33:55.940Z,101087.41
2023-02-22T23:35:57.874Z,101086.41
2023-02-22T23:38:00.569Z,101073.25
2023-02-22T23:40:02.619Z,101073.94
2023-02-22T23:42:04.697Z,101079.53
2023-02-22T23:44:17.901Z,101065.31
2023-02-22T23:46:20.970Z,101065.84
2023-02-22T23:48:23.299Z,101070.72
2023-02-22T23:50:27.063Z,101073.13
2023-02-22T23:52:30.181Z,101071.88
2023-02-22T23:54:36.696Z,101071.75
2023-02-22T23:56:40.474Z,101080.75
2023-02-22T23:58:43.790Z,101082.16
